Time;durP1;ratioP1;P1;durP2;ratioP2;P2;SDS_P1;SDS_P2;PMS_P1;PMS_P2;Temp;Humidity;BMP_temperature;BMP_pressure;BME280_temperature;BME280_humidity;BME280_pressure;Samples;Min_cycle;Max_cycle;Signal;HPM_P1;HPM_P2
2023/10/25 00:00:33;;;;;;;5.13;1.38;;;;;;;;;;4918890;29;20024;-80
2023/10/25 00:02:58;;;;;;;3.40;1.60;;;;;;;;;;4916947;29;20276;-76
2023/10/25 00:05:23;;;;;;;4.95;1.60;;;;;;;;;;4935505;29;20120;-76
2023/10/25 00:07:49;;;;;;;5.43;1.75;;;;;;;;;;4924672;29;20038;-76
2023/10/25 00:10:14;;;;;;;3.65;1.55;;;;;;;;;;4924547;29;20028;-76
2023/10/25 00:12:39;;;;;;;5.47;1.73;;;;;;;;;;4924554;29;20110;-76
2023/10/25 00:15:06;;;;;;;3.47;1.50;;;;;;;;;;4920693;29;20365;-76
2023/10/25 00:17:31;;;;;;;5.68;1.60;;;;;;;;;;4916210;29;20032;-75
2023/10/25 00:19:56;;;;;;;6.65;1.70;;;;;;;;;;4922898;29;20055;-76
2023/10/25 00:22:22;;;;;;;5.18;1.80;;;;;;;;;;4924213;29;20047;-77
2023/10/25 00:24:47;;;;;;;5.93;1.77;;;;;;;;;;4924328;29;20344;-76
2023/10/25 00:27:12;;;;;;;4.78;1.55;;;;;;;;;;4924779;29;20860;-76
2023/10/25 00:29:38;;;;;;;4.80;1.70;;;;;;;;;;4920322;29;20060;-76
2023/10/25 00:32:05;;;;;;;4.15;1.50;;;;;;;;;;4906709;29;20025;-75
2023/10/25 00:34:30;;;;;;;4.10;1.83;;;;;;;;;;4923991;29;20205;-76
2023/10/25 00:36:56;;;;;;;3.88;1.60;;;;;;;;;;4924159;29;20103;-76
2023/10/25 00:39:21;;;;;;;5.07;1.70;;;;;;;;;;4922596;29;20332;-74
2023/10/25 00:41:46;;;;;;;4.22;1.60;;;;;;;;;;4923265;29;20043;-75
2023/10/25 00:44:12;;;;;;;7.20;1.88;;;;;;;;;;4906884;29;20035;-78
2023/10/25 00:46:38;;;;;;;4.25;1.98;;;;;;;;;;4924051;29;20115;-76
2023/10/25 00:49:06;;;;;;;5.30;1.98;;;;;;;;;;4923694;29;20052;-75
2023/10/25 00:51:32;;;;;;;4.00;1.80;;;;;;;;;;4923211;29;20032;-77
2023/10/25 00:54:00;;;;;;;5.57;1.77;;;;;;;;;;4923815;29;20355;-78
2023/10/25 00:56:27;;;;;;;5.13;1.98;;;;;;;;;;4922691;29;20032;-77
2023/10/25 00:58:54;;;;;;;5.88;1.80;;;;;;;;;;4923422;29;20036;-78
2023/10/25 01:01:22;;;;;;;4.82;1.70;;;;;;;;;;4907675;29;20028;-78
2023/10/25 01:03:49;;;;;;;4.47;1.90;;;;;;;;;;4922262;29;20032;-79
2023/10/25 01:06:17;;;;;;;3.90;1.80;;;;;;;;;;4924043;29;20024;-78
2023/10/25 01:08:43;;;;;;;5.70;1.95;;;;;;;;;;4923712;29;20051;-79
2023/10/25 01:11:09;;;;;;;2.83;1.73;;;;;;;;;;4923926;29;20083;-79
2023/10/25 01:13:35;;;;;;;7.10;2.13;;;;;;;;;;4923900;29;20095;-79
2023/10/25 01:16:00;;;;;;;4.55;1.80;;;;;;;;;;4923587;29;20224;-78
2023/10/25 01:18:25;;;;;;;5.18;1.90;;;;;;;;;;4923202;29;20028;-79
2023/10/25 01:20:51;;;;;;;4.22;1.70;;;;;;;;;;4922526;29;20239;-79
2023/10/25 01:23:16;;;;;;;4.45;1.60;;;;;;;;;;4923480;29;20534;-78
2023/10/25 01:25:43;;;;;;;4.28;1.70;;;;;;;;;;4923602;29;20043;-78
2023/10/25 01:28:09;;;;;;;3.72;1.92;;;;;;;;;;4923543;29;20070;-78
2023/10/25 01:30:34;;;;;;;8.13;2.00;;;;;;;;;;4912334;29;20087;-79
2023/10/25 01:32:59;;;;;;;3.17;1.67;;;;;;;;;;4921904;29;20028;-79
2023/10/25 01:35:26;;;;;;;4.22;1.83;;;;;;;;;;4922309;29;20035;-78
2023/10/25 01:37:51;;;;;;;7.45;1.77;;;;;;;;;;4923291;29;20032;-79
2023/10/25 01:40:17;;;;;;;3.42;1.70;;;;;;;;;;4923553;29;20043;-79
2023/10/25 01:42:43;;;;;;;6.72;1.70;;;;;;;;;;4923405;29;20104;-79
2023/10/25 01:45:09;;;;;;;5.88;1.80;;;;;;;;;;4923555;29;20070;-79
2023/10/25 01:47:35;;;;;;;5.95;1.90;;;;;;;;;;4923187;29;20488;-79
2023/10/25 01:50:00;;;;;;;4.47;1.80;;;;;;;;;;4925867;29;20044;-80
2023/10/25 01:52:26;;;;;;;4.70;1.88;;;;;;;;;;4924457;29;20100;-79
2023/10/25 01:54:51;;;;;;;3.35;1.50;;;;;;;;;;4927324;29;20271;-80
2023/10/25 01:57:17;;;;;;;5.45;1.75;;;;;;;;;;4927279;29;20445;-79
2023/10/25 01:59:43;;;;;;;6.00;1.70;;;;;;;;;;4922378;29;20231;-79
2023/10/25 02:02:12;;;;;;;2.63;1.63;;;;;;;;;;4920474;29;20042;-78
2023/10/25 02:04:37;;;;;;;5.55;1.73;;;;;;;;;;4923832;29;20028;-76
2023/10/25 02:07:03;;;;;;;3.38;1.90;;;;;;;;;;4927025;29;20347;-76
2023/10/25 02:09:29;;;;;;;6.13;1.60;;;;;;;;;;4924129;29;20068;-77
2023/10/25 02:11:54;;;;;;;6.22;1.77;;;;;;;;;;4914914;29;20047;-79
2023/10/25 02:14:20;;;;;;;3.95;1.60;;;;;;;;;;4926823;29;20043;-78
2023/10/25 02:16:45;;;;;;;2.85;1.50;;;;;;;;;;4926339;29;20259;-77
2023/10/25 02:19:10;;;;;;;4.45;1.65;;;;;;;;;;4926356;29;20043;-77
2023/10/25 02:21:36;;;;;;;4.60;1.75;;;;;;;;;;4924995;29;20975;-77
2023/10/25 02:24:02;;;;;;;3.00;1.40;;;;;;;;;;4926594;29;20425;-76
2023/10/25 02:26:28;;;;;;;3.17;1.50;;;;;;;;;;4926275;29;20330;-77
2023/10/25 02:28:54;;;;;;;4.68;1.70;;;;;;;;;;4926074;29;20080;-77
2023/10/25 02:31:19;;;;;;;4.28;1.70;;;;;;;;;;4914444;29;20080;-76
2023/10/25 02:33:44;;;;;;;3.42;1.58;;;;;;;;;;4926153;29;20032;-78
2023/10/25 02:36:10;;;;;;;2.55;1.40;;;;;;;;;;4926393;29;20506;-76
2023/10/25 02:38:35;;;;;;;3.75;1.67;;;;;;;;;;4925304;29;20040;-76
2023/10/25 02:41:00;;;;;;;4.50;2.17;;;;;;;;;;4926564;29;20339;-76
2023/10/25 02:43:26;;;;;;;3.38;1.50;;;;;;;;;;4926112;29;20031;-77
2023/10/25 02:45:52;;;;;;;4.25;1.80;;;;;;;;;;4925976;29;20039;-77
2023/10/25 02:48:18;;;;;;;3.58;1.70;;;;;;;;;;4921482;29;20232;-77
2023/10/25 02:50:43;;;;;;;5.00;1.65;;;;;;;;;;4920219;29;20025;-76
2023/10/25 02:53:09;;;;;;;2.33;1.60;;;;;;;;;;4925994;29;20280;-77
2023/10/25 02:55:35;;;;;;;3.88;1.60;;;;;;;;;;4925145;29;20040;-79
2023/10/25 02:58:00;;;;;;;5.43;1.70;;;;;;;;;;4923895;29;20108;-77
2023/10/25 03:00:25;;;;;;;3.15;2.00;;;;;;;;;;4923276;29;20377;-77
2023/10/25 03:02:51;;;;;;;3.75;1.88;;;;;;;;;;4925120;29;20227;-77
2023/10/25 03:05:16;;;;;;;5.10;1.80;;;;;;;;;;4925021;29;20230;-77
2023/10/25 03:07:41;;;;;;;2.30;1.50;;;;;;;;;;4924580;29;20340;-78
2023/10/25 03:10:07;;;;;;;4.97;1.70;;;;;;;;;;4925966;29;20349;-77
2023/10/25 03:12:33;;;;;;;4.65;1.90;;;;;;;;;;4929224;29;20024;-78
2023/10/25 03:14:59;;;;;;;4.75;1.80;;;;;;;;;;4936094;29;20047;-78
2023/10/25 03:17:27;;;;;;;5.00;1.80;;;;;;;;;;4929578;29;20020;-77
2023/10/25 03:19:52;;;;;;;4.68;1.80;;;;;;;;;;4925381;29;20220;-78
2023/10/25 03:22:18;;;;;;;4.03;1.77;;;;;;;;;;4924335;29;20050;-76
2023/10/25 03:24:43;;;;;;;4.40;1.70;;;;;;;;;;4925501;29;20032;-78
2023/10/25 03:27:09;;;;;;;4.68;1.98;;;;;;;;;;4925686;29;20023;-78
2023/10/25 03:29:37;;;;;;;4.70;1.70;;;;;;;;;;4925838;29;20320;-78
2023/10/25 03:32:03;;;;;;;7.22;1.92;;;;;;;;;;4918831;29;20031;-76
2023/10/25 03:34:29;;;;;;;4.82;1.80;;;;;;;;;;4912507;29;20232;-77
2023/10/25 03:36:55;;;;;;;3.42;1.60;;;;;;;;;;4925690;29;20028;-77
2023/10/25 03:39:20;;;;;;;7.28;4.20;;;;;;;;;;4924748;29;20051;-77
2023/10/25 03:41:45;;;;;;;4.15;1.73;;;;;;;;;;4915611;29;20036;-78
2023/10/25 03:44:11;;;;;;;3.40;1.77;;;;;;;;;;4914829;29;20076;-77
2023/10/25 03:46:38;;;;;;;4.80;1.92;;;;;;;;;;4924138;29;20024;-77
2023/10/25 03:49:03;;;;;;;4.15;2.20;;;;;;;;;;4924809;29;20024;-76
2023/10/25 03:51:29;;;;;;;4.90;2.00;;;;;;;;;;4908256;29;20027;-78
2023/10/25 03:53:54;;;;;;;4.78;2.00;;;;;;;;;;4924607;29;20090;-77
2023/10/25 03:56:19;;;;;;;4.40;2.08;;;;;;;;;;4922722;29;20032;-76
2023/10/25 03:58:45;;;;;;;5.47;2.00;;;;;;;;;;4923438;29;20050;-76
2023/10/25 04:01:10;;;;;;;6.03;1.80;;;;;;;;;;4903519;29;20041;-78
2023/10/25 04:03:36;;;;;;;7.07;2.00;;;;;;;;;;4921505;29;20044;-77
2023/10/25 04:06:04;;;;;;;6.93;2.13;;;;;;;;;;4924562;29;20094;-77
2023/10/25 04:08:30;;;;;;;3.90;1.85;;;;;;;;;;4904942;29;20099;-77
2023/10/25 04:10:56;;;;;;;4.85;1.77;;;;;;;;;;4922107;29;20028;-75
2023/10/25 04:13:22;;;;;;;4.57;2.20;;;;;;;;;;4922971;29;20079;-77
2023/10/25 04:16:05;;;;;;;5.30;2.00;;;;;;;;;;4926633;29;20032;-78
2023/10/25 04:18:31;;;;;;;6.15;2.38;;;;;;;;;;4923452;29;20047;-77
2023/10/25 04:20:58;;;;;;;4.75;2.10;;;;;;;;;;4923922;29;20064;-77
2023/10/25 04:23:29;;;;;;;6.30;2.20;;;;;;;;;;4922181;29;20063;-77
2023/10/25 04:26:06;;;;;;;5.70;2.30;;;;;;;;;;4923549;29;20055;-76
2023/10/25 04:28:31;;;;;;;5.55;2.20;;;;;;;;;;4916791;29;20040;-77
2023/10/25 04:30:57;;;;;;;5.30;2.30;;;;;;;;;;4919933;29;20354;-77
2023/10/25 04:33:22;;;;;;;10.35;2.70;;;;;;;;;;4917669;29;20055;-77
2023/10/25 04:35:47;;;;;;;9.73;2.17;;;;;;;;;;4922942;29;20491;-77
2023/10/25 04:38:13;;;;;;;7.70;2.70;;;;;;;;;;4922583;29;20059;-78
2023/10/25 04:40:38;;;;;;;7.95;2.53;;;;;;;;;;4922278;29;20249;-78
2023/10/25 04:43:03;;;;;;;7.45;2.60;;;;;;;;;;4921623;29;20023;-77
2023/10/25 04:45:29;;;;;;;7.15;2.53;;;;;;;;;;4921801;29;20031;-78
2023/10/25 04:47:55;;;;;;;6.40;2.33;;;;;;;;;;4921332;29;20082;-77
2023/10/25 04:50:24;;;;;;;6.97;2.20;;;;;;;;;;4922828;29;20051;-78
2023/10/25 04:52:49;;;;;;;6.15;2.38;;;;;;;;;;4921933;29;20283;-77
2023/10/25 04:55:15;;;;;;;4.80;2.40;;;;;;;;;;4921203;29;20032;-77
2023/10/25 04:57:40;;;;;;;4.65;2.20;;;;;;;;;;4922058;29;20035;-76
2023/10/25 05:00:09;;;;;;;8.13;2.20;;;;;;;;;;4923698;29;20055;-76
2023/10/25 05:02:38;;;;;;;5.18;2.05;;;;;;;;;;4920416;29;20039;-76
2023/10/25 05:05:05;;;;;;;7.50;2.25;;;;;;;;;;4922687;29;20024;-77
2023/10/25 05:07:31;;;;;;;5.82;1.90;;;;;;;;;;4923775;29;20027;-77
2023/10/25 05:09:57;;;;;;;3.40;2.00;;;;;;;;;;4921421;29;20028;-76
2023/10/25 05:12:34;;;;;;;7.30;2.03;;;;;;;;;;4922040;29;20028;-77
2023/10/25 05:15:01;;;;;;;7.95;2.63;;;;;;;;;;4919290;29;20028;-78
2023/10/25 05:17:27;;;;;;;6.57;2.15;;;;;;;;;;4921447;29;20100;-75
2023/10/25 05:19:52;;;;;;;6.57;2.10;;;;;;;;;;4921995;29;20032;-77
2023/10/25 05:22:20;;;;;;;5.53;1.90;;;;;;;;;;4922266;29;20059;-78
2023/10/25 05:24:46;;;;;;;3.95;2.20;;;;;;;;;;4923852;29;20654;-77
2023/10/25 05:27:12;;;;;;;5.20;2.15;;;;;;;;;;4904309;29;20315;-77
2023/10/25 05:29:38;;;;;;;7.32;2.30;;;;;;;;;;4927237;29;20042;-78
2023/10/25 05:32:05;;;;;;;8.25;2.15;;;;;;;;;;4921409;29;20231;-78
2023/10/25 05:34:31;;;;;;;4.03;1.88;;;;;;;;;;4922405;29;20024;-77
2023/10/25 05:36:57;;;;;;;8.65;2.28;;;;;;;;;;4923572;29;20068;-76
2023/10/25 05:39:22;;;;;;;5.20;1.92;;;;;;;;;;4907836;29;20266;-77
2023/10/25 05:41:51;;;;;;;6.90;2.10;;;;;;;;;;4918069;29;20094;-76
2023/10/25 05:44:16;;;;;;;8.65;2.20;;;;;;;;;;4909070;29;20206;-76
2023/10/25 05:46:42;;;;;;;5.00;1.80;;;;;;;;;;4917980;29;20330;-77
2023/10/25 05:49:08;;;;;;;6.40;1.80;;;;;;;;;;4919816;29;20060;-77
2023/10/25 05:51:34;;;;;;;4.95;1.75;;;;;;;;;;4924107;29;20259;-77
2023/10/25 05:54:00;;;;;;;6.70;1.90;;;;;;;;;;4925837;29;20028;-77
2023/10/25 05:56:26;;;;;;;6.72;1.63;;;;;;;;;;4925421;29;20087;-77
2023/10/25 05:58:56;;;;;;;6.20;1.80;;;;;;;;;;4926204;29;20042;-77
2023/10/25 06:01:36;;;;;;;7.55;2.13;;;;;;;;;;4924580;29;20059;-77
2023/10/25 06:04:04;;;;;;;7.60;2.28;;;;;;;;;;4916920;29;20122;-77
2023/10/25 06:06:30;;;;;;;6.53;1.75;;;;;;;;;;4919862;29;20032;-76
2023/10/25 06:08:55;;;;;;;6.47;1.90;;;;;;;;;;4914880;29;20037;-77
2023/10/25 06:11:21;;;;;;;4.72;1.85;;;;;;;;;;4907701;29;20024;-77
2023/10/25 06:13:46;;;;;;;3.72;1.55;;;;;;;;;;4922842;29;20028;-78
2023/10/25 06:16:13;;;;;;;5.85;1.90;;;;;;;;;;4926693;29;20075;-78
2023/10/25 06:18:38;;;;;;;5.55;1.75;;;;;;;;;;4923756;29;20067;-77
2023/10/25 06:21:04;;;;;;;5.45;1.65;;;;;;;;;;4925756;29;20334;-77
2023/10/25 06:23:29;;;;;;;4.80;1.98;;;;;;;;;;4924768;29;20465;-76
2023/10/25 06:25:54;;;;;;;4.90;1.63;;;;;;;;;;4924870;29;20036;-77
2023/10/25 06:28:20;;;;;;;6.03;1.90;;;;;;;;;;4925325;29;20020;-76
2023/10/25 06:30:46;;;;;;;4.78;1.55;;;;;;;;;;4918744;29;20051;-77
2023/10/25 06:33:11;;;;;;;4.88;1.58;;;;;;;;;;4923195;29;20240;-77
2023/10/25 06:35:37;;;;;;;4.75;1.60;;;;;;;;;;4923911;29;20075;-78
2023/10/25 06:38:02;;;;;;;5.10;1.60;;;;;;;;;;4918013;29;20028;-77
2023/10/25 06:40:28;;;;;;;3.92;1.42;;;;;;;;;;4917010;29;20387;-78
2023/10/25 06:42:54;;;;;;;4.40;1.50;;;;;;;;;;4924297;29;20103;-79
2023/10/25 06:45:19;;;;;;;3.15;1.50;;;;;;;;;;4923389;29;20032;-76
2023/10/25 06:47:45;;;;;;;6.05;1.90;;;;;;;;;;4924900;29;20274;-76
2023/10/25 06:50:12;;;;;;;6.35;1.60;;;;;;;;;;4923351;29;20064;-76
2023/10/25 06:52:38;;;;;;;4.85;1.60;;;;;;;;;;4925744;29;20170;-77
2023/10/25 06:55:04;;;;;;;4.28;1.50;;;;;;;;;;4925130;29;20103;-76
2023/10/25 06:57:30;;;;;;;5.07;1.60;;;;;;;;;;4925577;29;20036;-77
2023/10/25 06:59:56;;;;;;;6.05;1.80;;;;;;;;;;4924879;29;20231;-79
2023/10/25 07:02:38;;;;;;;4.03;1.55;;;;;;;;;;4919431;29;20036;-79
2023/10/25 07:05:12;;;;;;;5.18;1.85;;;;;;;;;;4923934;29;20063;-78
2023/10/25 07:07:39;;;;;;;6.65;1.63;;;;;;;;;;4921599;29;20104;-78
2023/10/25 07:10:08;;;;;;;7.45;1.77;;;;;;;;;;4921713;29;20417;-80
2023/10/25 07:12:46;;;;;;;6.90;2.28;;;;;;;;;;4923058;29;20216;-79
2023/10/25 07:15:12;;;;;;;4.93;1.70;;;;;;;;;;4908300;29;20032;-78
2023/10/25 07:17:38;;;;;;;3.75;1.60;;;;;;;;;;4923369;29;20383;-78
2023/10/25 07:20:10;;;;;;;6.47;1.88;;;;;;;;;;4924455;29;20028;-79
2023/10/25 07:22:37;;;;;;;5.47;1.55;;;;;;;;;;4913048;29;20201;-78
2023/10/25 07:25:04;;;;;;;6.88;1.80;;;;;;;;;;4924010;29;20059;-79
2023/10/25 07:27:29;;;;;;;6.25;1.58;;;;;;;;;;4907162;29;20127;-76
2023/10/25 07:29:54;;;;;;;6.15;1.77;;;;;;;;;;4924346;29;20019;-78
2023/10/25 07:32:20;;;;;;;4.90;1.60;;;;;;;;;;4923241;29;20036;-78
2023/10/25 07:34:45;;;;;;;5.43;1.60;;;;;;;;;;4924145;29;20067;-78
2023/10/25 07:37:12;;;;;;;6.18;1.70;;;;;;;;;;4921709;29;20199;-81
2023/10/25 07:39:37;;;;;;;5.72;2.22;;;;;;;;;;4924435;29;20343;-79
2023/10/25 07:42:03;;;;;;;4.15;1.50;;;;;;;;;;4924103;29;20040;-81
2023/10/25 07:44:28;;;;;;;5.82;1.90;;;;;;;;;;4921060;29;20107;-80
2023/10/25 07:46:54;;;;;;;6.35;2.08;;;;;;;;;;4924652;29;20036;-80
2023/10/25 07:49:19;;;;;;;3.95;1.60;;;;;;;;;;4922568;29;20394;-79
2023/10/25 07:51:45;;;;;;;4.00;1.60;;;;;;;;;;4921339;29;20028;-79
2023/10/25 07:54:10;;;;;;;3.30;1.65;;;;;;;;;;4918638;29;20104;-78
2023/10/25 07:56:36;;;;;;;3.97;1.40;;;;;;;;;;4919183;29;20036;-81
2023/10/25 07:59:01;;;;;;;3.28;1.50;;;;;;;;;;4906162;29;20068;-79
2023/10/25 08:01:27;;;;;;;7.25;1.58;;;;;;;;;;4919910;29;20039;-79
2023/10/25 08:03:53;;;;;;;4.30;1.70;;;;;;;;;;4923445;29;20058;-80
2023/10/25 08:06:18;;;;;;;3.15;1.40;;;;;;;;;;4923886;29;20028;-80
2023/10/25 08:08:43;;;;;;;2.33;1.50;;;;;;;;;;4924183;29;20036;-80
2023/10/25 08:11:09;;;;;;;4.43;1.63;;;;;;;;;;4923060;29;20039;-81
2023/10/25 08:13:38;;;;;;;3.05;1.50;;;;;;;;;;4917956;29;20028;-78
2023/10/25 08:16:04;;;;;;;4.57;1.50;;;;;;;;;;4923461;29;20059;-80
2023/10/25 08:18:30;;;;;;;4.03;1.60;;;;;;;;;;4922138;29;20036;-79
2023/10/25 08:20:57;;;;;;;3.78;1.45;;;;;;;;;;4921904;29;20048;-79
2023/10/25 08:23:23;;;;;;;3.22;1.40;;;;;;;;;;4924233;29;20032;-82
2023/10/25 08:25:50;;;;;;;2.85;1.48;;;;;;;;;;4918820;29;20064;-80
2023/10/25 08:28:16;;;;;;;3.97;1.40;;;;;;;;;;4904312;29;20028;-80
2023/10/25 08:30:42;;;;;;;2.85;1.42;;;;;;;;;;4919150;29;20043;-78
2023/10/25 08:33:07;;;;;;;3.33;1.38;;;;;;;;;;4918493;29;20324;-77
2023/10/25 08:35:32;;;;;;;2.85;1.50;;;;;;;;;;4923469;29;20047;-78
2023/10/25 08:37:58;;;;;;;2.60;1.60;;;;;;;;;;4923803;29;20024;-78
2023/10/25 08:40:26;;;;;;;3.33;1.40;;;;;;;;;;4923678;29;20043;-78
2023/10/25 08:42:52;;;;;;;2.95;1.38;;;;;;;;;;4923744;29;20432;-82
2023/10/25 08:45:17;;;;;;;2.50;1.60;;;;;;;;;;4905964;29;20077;-79
2023/10/25 08:47:43;;;;;;;3.38;1.60;;;;;;;;;;4905412;29;20323;-79
2023/10/25 08:50:10;;;;;;;3.33;1.50;;;;;;;;;;4920818;29;20047;-79
2023/10/25 08:52:38;;;;;;;3.13;1.50;;;;;;;;;;4923407;29;20028;-81
2023/10/25 08:55:08;;;;;;;2.47;1.50;;;;;;;;;;4923473;29;20115;-78
2023/10/25 08:57:36;;;;;;;3.08;1.50;;;;;;;;;;4917724;29;20028;-80
2023/10/25 09:00:07;;;;;;;4.88;1.58;;;;;;;;;;4918383;29;20327;-80
2023/10/25 09:02:35;;;;;;;3.25;1.40;;;;;;;;;;4921461;29;20035;-81
2023/10/25 09:05:06;;;;;;;2.63;1.52;;;;;;;;;;4923545;29;20039;-80
2023/10/25 09:07:35;;;;;;;3.22;1.50;;;;;;;;;;4904371;29;20050;-80
2023/10/25 09:10:03;;;;;;;3.20;1.52;;;;;;;;;;4906243;29;20024;-81
2023/10/25 09:12:29;;;;;;;2.78;1.70;;;;;;;;;;4922248;29;20032;-82
2023/10/25 09:14:54;;;;;;;2.25;1.42;;;;;;;;;;4923087;29;20036;-80
2023/10/25 09:17:20;;;;;;;4.63;1.73;;;;;;;;;;4924155;29;20028;-83
2023/10/25 09:19:49;;;;;;;4.07;1.35;;;;;;;;;;4920135;29;20078;-83
2023/10/25 09:22:25;;;;;;;3.17;1.42;;;;;;;;;;4923389;29;20063;-81
2023/10/25 09:24:51;;;;;;;2.10;1.30;;;;;;;;;;4923028;29;20038;-80
2023/10/25 09:27:20;;;;;;;2.47;1.50;;;;;;;;;;4920954;29;20345;-79
2023/10/25 09:29:46;;;;;;;2.42;1.30;;;;;;;;;;4920916;29;20050;-82
2023/10/25 09:32:11;;;;;;;4.05;1.30;;;;;;;;;;4916223;29;20119;-80
2023/10/25 09:34:37;;;;;;;2.00;1.27;;;;;;;;;;4922174;29;20032;-82
2023/10/25 09:37:04;;;;;;;2.97;1.30;;;;;;;;;;4921914;29;20181;-83
2023/10/25 09:39:31;;;;;;;2.42;1.25;;;;;;;;;;4914883;29;20399;-82
2023/10/25 09:42:01;;;;;;;1.80;1.25;;;;;;;;;;4904956;29;20032;-83
2023/10/25 09:44:31;;;;;;;2.67;1.30;;;;;;;;;;4922782;29;20249;-81
2023/10/25 09:46:58;;;;;;;2.08;1.25;;;;;;;;;;4921685;29;20051;-81
2023/10/25 09:49:31;;;;;;;2.60;1.10;;;;;;;;;;4922677;29;20051;-81
2023/10/25 09:52:05;;;;;;;2.38;1.10;;;;;;;;;;4919431;29;20399;-82
2023/10/25 09:54:35;;;;;;;2.33;1.25;;;;;;;;;;4922253;29;20021;-80
2023/10/25 09:57:02;;;;;;;2.42;1.20;;;;;;;;;;4920390;29;20038;-80
2023/10/25 09:59:31;;;;;;;2.03;1.20;;;;;;;;;;4922600;29;20112;-80
2023/10/25 10:01:57;;;;;;;1.83;1.30;;;;;;;;;;4904108;29;20208;-81
2023/10/25 10:04:33;;;;;;;2.35;1.30;;;;;;;;;;4922099;29;20327;-83
2023/10/25 10:07:21;;;;;;;1.95;1.10;;;;;;;;;;4922725;29;20094;-80
2023/10/25 10:10:01;;;;;;;2.75;1.23;;;;;;;;;;4911684;29;20485;-81
2023/10/25 10:12:27;;;;;;;3.35;1.40;;;;;;;;;;4917913;29;20036;-81
2023/10/25 10:14:52;;;;;;;3.13;1.63;;;;;;;;;;4914029;29;20032;-84
2023/10/25 10:17:18;;;;;;;2.30;1.40;;;;;;;;;;4915983;29;20092;-80
2023/10/25 10:19:46;;;;;;;2.45;1.50;;;;;;;;;;4909653;29;20063;-81
2023/10/25 10:22:13;;;;;;;3.00;1.30;;;;;;;;;;4911133;29;20575;-82
2023/10/25 10:24:42;;;;;;;2.83;1.40;;;;;;;;;;4903877;29;20036;-82
2023/10/25 10:27:10;;;;;;;2.55;1.50;;;;;;;;;;4924899;29;20024;-81
2023/10/25 10:29:36;;;;;;;2.55;1.30;;;;;;;;;;4918158;29;20021;-81
2023/10/25 10:32:04;;;;;;;2.63;1.50;;;;;;;;;;4917140;29;20024;-80
2023/10/25 10:34:57;;;;;;;3.05;1.67;;;;;;;;;;4915110;29;20035;-82
2023/10/25 10:37:25;;;;;;;2.88;1.65;;;;;;;;;;4913803;29;20119;-81
2023/10/25 10:39:56;;;;;;;3.88;1.70;;;;;;;;;;4912125;29;20040;-80
2023/10/25 10:42:30;;;;;;;2.60;1.52;;;;;;;;;;4905759;29;20020;-81
2023/10/25 10:45:07;;;;;;;2.38;1.50;;;;;;;;;;4915871;29;20036;-80
2023/10/25 10:47:38;;;;;;;3.95;1.38;;;;;;;;;;4914918;29;20036;-80
2023/10/25 10:50:20;;;;;;;2.47;1.60;;;;;;;;;;4919849;29;20036;-80
2023/10/25 10:52:47;;;;;;;2.70;1.60;;;;;;;;;;4914226;29;20461;-81
2023/10/25 10:55:17;;;;;;;2.92;1.70;;;;;;;;;;4916258;29;20023;-80
2023/10/25 10:57:43;;;;;;;16.42;9.00;;;;;;;;;;4913824;29;20036;-81
2023/10/25 11:00:10;;;;;;;13.32;7.60;;;;;;;;;;4915981;29;20043;-80
2023/10/25 11:02:43;;;;;;;3.90;1.60;;;;;;;;;;4916348;29;20028;-80
2023/10/25 11:05:09;;;;;;;3.13;2.00;;;;;;;;;;4912534;29;20521;-80
2023/10/25 11:07:34;;;;;;;4.45;2.58;;;;;;;;;;4915321;29;20036;-81
2023/10/25 11:10:00;;;;;;;4.28;2.00;;;;;;;;;;4886642;29;20016;-82
2023/10/25 11:12:26;;;;;;;4.75;2.30;;;;;;;;;;4914311;29;20046;-83
2023/10/25 11:14:54;;;;;;;5.45;2.72;;;;;;;;;;4921347;29;20023;-85
2023/10/25 11:17:23;;;;;;;4.97;2.30;;;;;;;;;;4922069;29;20481;-83
2023/10/25 11:19:48;;;;;;;5.72;2.40;;;;;;;;;;4913529;29;20043;-85
2023/10/25 11:22:14;;;;;;;3.20;2.17;;;;;;;;;;4909880;29;20037;-85
2023/10/25 11:24:40;;;;;;;7.45;2.42;;;;;;;;;;4905213;29;20031;-83
2023/10/25 11:27:05;;;;;;;7.28;5.47;;;;;;;;;;4914629;29;20028;-82
2023/10/25 11:29:31;;;;;;;3.08;2.25;;;;;;;;;;4922171;29;20080;-83
2023/10/25 11:32:00;;;;;;;3.92;2.30;;;;;;;;;;4921816;29;20049;-81
2023/10/25 11:34:33;;;;;;;3.50;1.90;;;;;;;;;;4919737;29;20024;-81
2023/10/25 11:37:49;;;;;;;3.70;2.10;;;;;;;;;;4906287;29;20032;-87
2023/10/25 11:40:33;;;;;;;2.83;1.60;;;;;;;;;;4834810;29;20329;-82
2023/10/25 11:49:27;;;;;;;4.90;1.50;;;;;;;;;;4950990;23;20107;-84
2023/10/25 12:20:17;;;;;;;2.60;1.20;;;;;;;;;;4874947;29;20056;-90
2023/10/25 12:22:42;;;;;;;1.98;1.10;;;;;;;;;;4876101;29;20029;-84
2023/10/25 12:25:08;;;;;;;2.17;1.20;;;;;;;;;;4865899;29;20032;-88
2023/10/25 12:27:33;;;;;;;5.95;4.45;;;;;;;;;;4875948;29;20021;-87
2023/10/25 12:29:59;;;;;;;1.88;1.08;;;;;;;;;;4875966;29;20041;-84
2023/10/25 12:32:25;;;;;;;2.00;1.20;;;;;;;;;;4876062;29;20020;-89
2023/10/25 12:34:50;;;;;;;2.85;1.20;;;;;;;;;;4872577;29;20097;-87
2023/10/25 12:37:15;;;;;;;2.55;1.95;;;;;;;;;;4875651;29;20375;-87
2023/10/25 12:39:41;;;;;;;3.15;1.10;;;;;;;;;;4875413;29;20109;-89
2023/10/25 12:42:06;;;;;;;2.65;1.13;;;;;;;;;;4877700;29;20084;-83
2023/10/25 12:44:32;;;;;;;1.52;1.00;;;;;;;;;;4880236;29;20523;-83
2023/10/25 12:46:57;;;;;;;2.58;1.67;;;;;;;;;;4868203;29;20225;-82
2023/10/25 12:49:22;;;;;;;1.40;1.08;;;;;;;;;;4873765;29;20079;-86
2023/10/25 12:51:48;;;;;;;2.22;1.38;;;;;;;;;;4851606;29;20206;-82
2023/10/25 12:54:13;;;;;;;2.60;1.35;;;;;;;;;;4885477;29;20044;-82
2023/10/25 12:56:39;;;;;;;2.97;1.00;;;;;;;;;;4888115;29;20025;-82
2023/10/25 12:59:05;;;;;;;1.80;1.20;;;;;;;;;;4880584;29;20136;-83
2023/10/25 13:01:33;;;;;;;3.60;2.58;;;;;;;;;;4874311;29;20043;-82
2023/10/25 13:03:58;;;;;;;3.05;1.38;;;;;;;;;;4873881;29;20068;-83
2023/10/25 13:06:26;;;;;;;2.28;1.23;;;;;;;;;;4876214;29;20232;-82
2023/10/25 13:08:52;;;;;;;1.35;0.93;;;;;;;;;;4877157;29;20475;-81
2023/10/25 13:11:17;;;;;;;2.03;1.27;;;;;;;;;;4877411;29;20718;-82
2023/10/25 13:13:43;;;;;;;1.98;1.10;;;;;;;;;;4875785;29;20041;-85
2023/10/25 13:16:08;;;;;;;1.67;1.00;;;;;;;;;;4874746;29;20067;-84
2023/10/25 13:18:33;;;;;;;2.45;1.00;;;;;;;;;;4875038;29;20056;-82
2023/10/25 13:20:59;;;;;;;2.90;1.10;;;;;;;;;;4874789;29;20190;-82
2023/10/25 13:23:26;;;;;;;2.85;1.30;;;;;;;;;;4874728;29;20155;-81
2023/10/25 13:25:53;;;;;;;1.70;1.13;;;;;;;;;;4875106;29;20032;-81
2023/10/25 13:28:21;;;;;;;3.08;1.30;;;;;;;;;;4875048;29;20052;-84
2023/10/25 13:30:46;;;;;;;2.80;1.30;;;;;;;;;;4874972;29;20095;-82
2023/10/25 13:33:13;;;;;;;4.97;3.78;;;;;;;;;;4875377;29;20131;-82
2023/10/25 13:35:41;;;;;;;1.35;0.93;;;;;;;;;;4875065;29;20025;-83
2023/10/25 13:38:06;;;;;;;2.95;1.20;;;;;;;;;;4875027;29;20493;-81
2023/10/25 13:40:32;;;;;;;1.90;1.10;;;;;;;;;;4875642;29;20116;-81
2023/10/25 13:42:57;;;;;;;2.22;1.30;;;;;;;;;;4875830;29;20029;-81
2023/10/25 13:45:23;;;;;;;2.95;1.10;;;;;;;;;;4883443;29;20021;-80
2023/10/25 13:47:48;;;;;;;1.52;1.00;;;;;;;;;;4879906;29;20027;-81
2023/10/25 13:50:13;;;;;;;1.63;1.05;;;;;;;;;;4878505;29;20421;-80
2023/10/25 13:52:39;;;;;;;2.30;1.00;;;;;;;;;;4875546;29;20472;-79
2023/10/25 13:55:05;;;;;;;2.67;1.30;;;;;;;;;;4878238;29;20049;-80
2023/10/25 13:57:30;;;;;;;2.60;1.27;;;;;;;;;;4884560;29;20028;-81
2023/10/25 13:59:57;;;;;;;2.47;1.10;;;;;;;;;;4884438;29;20033;-80
2023/10/25 14:02:22;;;;;;;1.90;1.20;;;;;;;;;;4882969;29;20060;-80
2023/10/25 14:04:48;;;;;;;2.20;1.15;;;;;;;;;;4887613;29;20029;-80
2023/10/25 14:07:13;;;;;;;2.00;1.15;;;;;;;;;;4888205;29;20086;-81
2023/10/25 14:09:38;;;;;;;2.17;1.10;;;;;;;;;;4879979;29;20055;-81
2023/10/25 14:12:04;;;;;;;4.18;1.23;;;;;;;;;;4878349;29;20127;-80
2023/10/25 14:14:29;;;;;;;2.05;1.10;;;;;;;;;;4878247;29;20032;-79
2023/10/25 14:16:55;;;;;;;1.92;1.10;;;;;;;;;;4880062;29;20081;-78
2023/10/25 14:19:21;;;;;;;1.90;1.10;;;;;;;;;;4882470;29;20576;-80
2023/10/25 14:21:46;;;;;;;1.80;1.05;;;;;;;;;;4876254;29;20395;-81
2023/10/25 14:24:13;;;;;;;2.75;1.30;;;;;;;;;;4876480;29;20049;-80
2023/10/25 14:26:40;;;;;;;1.00;0.80;;;;;;;;;;4882175;29;20041;-81
2023/10/25 14:29:07;;;;;;;1.05;0.85;;;;;;;;;;4874955;29;20040;-79
2023/10/25 14:31:34;;;;;;;1.92;0.80;;;;;;;;;;4866708;29;20478;-79
2023/10/25 14:34:01;;;;;;;1.50;1.00;;;;;;;;;;4875770;29;20456;-79
2023/10/25 14:36:26;;;;;;;3.17;1.10;;;;;;;;;;4877399;29;20425;-80
2023/10/25 14:38:52;;;;;;;1.48;1.00;;;;;;;;;;4875581;29;20033;-80
2023/10/25 14:41:18;;;;;;;1.08;0.90;;;;;;;;;;4877204;29;20026;-78
2023/10/25 14:43:43;;;;;;;2.05;1.00;;;;;;;;;;4876367;29;20029;-80
2023/10/25 14:46:18;;;;;;;1.85;1.00;;;;;;;;;;4880791;29;20037;-79
2023/10/25 14:48:44;;;;;;;;;;;;;;;;;;4881487;29;20025;-79
2023/10/25 14:51:17;;;;;;;1.48;0.90;;;;;;;;;;4879169;29;20147;-78
2023/10/25 14:53:44;;;;;;;1.98;0.90;;;;;;;;;;4874394;29;20633;-82
2023/10/25 14:56:10;;;;;;;2.05;1.00;;;;;;;;;;4878217;29;20049;-80
2023/10/25 14:58:36;;;;;;;2.00;1.08;;;;;;;;;;4880976;29;20052;-75
2023/10/25 15:01:01;;;;;;;2.28;1.00;;;;;;;;;;4884175;29;20033;-75
2023/10/25 15:03:27;;;;;;;3.05;1.00;;;;;;;;;;4871713;29;20037;-80
2023/10/25 15:05:54;;;;;;;0.85;0.80;;;;;;;;;;4884052;29;20338;-81
2023/10/25 15:08:19;;;;;;;2.33;0.90;;;;;;;;;;4888009;29;20055;-83
2023/10/25 15:10:45;;;;;;;2.22;1.00;;;;;;;;;;4888189;29;20056;-80
2023/10/25 15:13:10;;;;;;;2.22;1.08;;;;;;;;;;4887820;29;20052;-82
2023/10/25 15:15:35;;;;;;;2.75;1.00;;;;;;;;;;4888039;29;20112;-81